Latest Coastal Weather Observations for Broome

IDW60701

Issued at 11:52 am WST Sunday 25 January 2015 (issued every 10 minutes, with the page automatically refreshed every 10 minutes)

About coastal observations | Map of coastal stations | Coastal observations for WA | Marine services | Other Formats
Station Details ID: 003003 Name: BROOME AIRPORT Lat: -17.95 Lon: 122.24 Height: 7.42 m
Data from the previous 72 hours. | See also: Recent months at Broome
Date/Time
WST
Temp

°C
Wind Pressure Rain
since 9am
mm
Weather Cloud Vis
km
Sea
Height
m
Swell
Dir
 
Speed
knots
Gust
knots
hPa Trend Height
m
Period
s
Dir
25/11:30am 30.9 WSW 5 9 1009.5 - 0.0 - - 10 - - - -
25/11:00am 30.7 WNW 7 10 1009.2 - 0.0 - - 10 - - - -
25/10:30am 30.6 WNW 9 13 1009.4 - 0.0 - - 10 - - - -
25/10:00am 29.4 NW 8 11 1009.1 - 0.0 - - 10 - - - -
25/09:30am 29.4 NW 9 13 1008.9 - 0.0 - - 10 - - - -
25/09:00am 28.5 NW 7 9 1008.4 F 6.8 Fine Cloudy 40 - - - -
25/08:30am 26.8 N 4 5 1008.6 - 6.8 - - 10 - - - -
25/08:00am 25.9 N 3 4 1008.4 - 6.8 - Mostly clear 10 - - - -
25/07:30am 25.6 E 3 4 1008.5 - 6.8 - Mostly clear 10 - - - -
25/07:00am 25.3 ENE 7 9 1008.5 - 6.8 - Mostly clear 10 - - - -
25/06:30am 26.8 ESE 10 13 1008.4 - 6.6 - Mostly clear 10 - - - -
25/06:00am 27.0 SSE 10 15 1008.5 F 6.6 Rain Cloudy 30 - - - -
25/05:30am 26.7 SSE 8 12 1009.0 - 6.4 - Mostly clear 10 - - - -
25/05:00am 25.8 SSE 7 10 1008.9 - 6.4 - Partly cloudy 10 - - - -
25/04:30am 24.8 SE 7 12 1010.1 - 6.4 - Partly cloudy 10 - - - -
25/04:00am 24.1 ESE 14 21 1010.1 - 6.4 - Partly cloudy 10 - - - -
25/03:52am 23.9 ESE 18 28 1010.2 - 6.4 - Partly cloudy 10 - - - -
25/03:51am 23.9 ESE 19 28 1010.2 - 6.4 - Partly cloudy 10 - - - -
25/03:43am 23.7 ESE 21 31 1010.4 - 6.4 - Partly cloudy 7 - - - -
25/03:33am 23.7 ESE 24 35 1010.4 - 6.0 - Partly cloudy 5 - - - -
25/03:30am 23.6 ESE 21 29 1010.3 - 5.8 - Partly cloudy 6 - - - -
25/03:27am 23.5 SE 9 14 1010.6 - 5.6 - Partly cloudy 5 - - - -
25/03:18am 23.4 SSE 20 30 1010.7 - 5.0 - Partly cloudy 2 - - - -
25/03:15am 23.5 SSE 23 30 1010.8 - 3.6 - Partly cloudy 2 - - - -
25/03:10am 24.0 ESE 25 37 1010.4 - 1.0 - Partly cloudy 5 - - - -
25/03:07am 26.2 ESE 22 35 1010.1 - 0.0 - Partly cloudy 10 - - - -
25/03:06am 28.4 ESE 19 28 1009.8 - 0.0 - Partly cloudy 10 - - - -
25/03:00am 29.2 E 6 10 1009.0 - 0.0 - Cloudy 10 - - - -
25/02:30am 29.5 NW 12 16 1007.3 - 0.0 - Partly cloudy 10 - - - -
25/02:00am 29.3 NNW 11 17 1007.4 - 0.0 - Partly cloudy 10 - - - -
25/01:30am 29.4 NNW 10 16 1007.2 - 0.0 - Partly cloudy 10 - - - -
25/01:00am 29.4 NNW 12 17 1006.7 - 0.0 - Partly cloudy 10 - - - -
25/12:30am 29.3 NNW 15 23 1006.4 - 0.0 - Cloudy 10 - - - -
25/12:00am 29.2 NNW 13 21 1006.3 - 0.0 - Cloudy 10 - - - -
 
Date/Time
WST
Temp

°C
Wind Pressure Rain
since 9am
mm
Weather Cloud Vis
km
Sea
Height
m
Swell
Dir
 
Speed
knots
Gust
knots
hPa Trend Height
m
Period
s
Dir
24/11:30pm 29.2 NNW 12 19 1006.7 - 0.0 - Partly cloudy 10 - - - -
24/11:00pm 29.2 NNW 12 17 1007.0 - 0.0 - Partly cloudy 10 - - - -
24/10:30pm 29.6 NNW 10 16 1007.2 - 0.0 - Partly cloudy 10 - - - -
24/10:00pm 29.5 NNW 11 17 1007.5 - 0.0 - Partly cloudy 10 - - - -
24/09:30pm 29.6 NNW 10 15 1007.3 - 0.0 - Partly cloudy 10 - - - -
24/09:00pm 29.6 NW 12 16 1006.6 - 0.0 - Cloudy 10 - - - -
24/08:30pm 29.7 NW 11 17 1006.5 - 0.0 - Partly cloudy 10 - - - -
24/08:29pm 29.7 NW 11 15 1006.5 - 0.0 - Partly cloudy 10 - - - -
24/08:18pm 29.7 NW 10 14 1006.4 - 0.0 - Partly cloudy 10 - - - -
24/08:10pm 29.7 NW 11 16 1006.2 - 0.0 - Partly cloudy 10 - - - -
24/08:00pm 29.7 NW 11 16 1006.3 - 0.0 - Partly cloudy 10 - - - -
24/07:57pm 29.8 NW 10 15 1006.3 - 0.0 - Partly cloudy 10 - - - -
24/07:30pm 29.8 NW 11 15 1005.6 - 0.0 - Partly cloudy 10 - - - -
24/07:00pm 29.9 NW 12 17 1005.2 - 0.0 - - 10 - - - -
24/06:30pm 30.1 NW 11 17 1004.7 - 0.0 - - 10 - - - -
24/06:00pm 30.6 NW 12 17 1004.4 - 0.0 - - 10 - - - -
24/05:30pm 31.1 NW 10 16 1004.4 - 0.0 - - 10 - - - -
24/05:00pm 31.5 NW 12 17 1004.3 - 0.0 - - 10 - - - -
24/04:30pm 31.9 WNW 12 16 1004.1 - 0.0 - Mostly clear 10 - - - -
24/04:00pm 32.0 WNW 11 15 1004.2 - 0.0 - Mostly clear 10 - - - -
24/03:30pm 32.6 NW 11 15 1004.2 - 0.0 - Mostly clear 10 - - - -
24/03:00pm 32.3 NW 12 16 1004.2 S 0.0 Haze Mostly clear 20 - - - -
24/02:30pm 32.8 WNW 10 15 1004.5 - 0.0 - - 10 - - - -
24/02:00pm 32.6 W 10 14 1004.8 - 0.0 - - 10 - - - -
24/01:30pm 33.3 NW 8 12 1004.7 - 0.0 - - 10 - - - -
24/01:00pm 33.5 WNW 8 11 1005.4 - 0.0 - Mostly clear 10 - - - -
24/12:30pm 32.6 WNW 9 11 1005.9 - 0.0 - Mostly clear 10 - - - -
24/12:06pm - - - - - - - - - - - - - -
24/12:00pm 33.0 NW 9 12 1006.0 F 0.0 Haze Mostly clear 20 - - - -
24/11:30am 32.9 WNW 6 9 1006.5 - 0.0 - Mostly clear 10 - - - -
24/11:00am 33.1 WNW 8 11 1007.0 - 0.0 - Mostly clear 10 - - - -
24/10:30am 31.5 W 9 13 1007.6 - 0.0 - Partly cloudy 10 - - - -
24/10:00am 32.5 W 9 15 1007.7 - 0.0 - Partly cloudy 10 - - - -
24/09:30am 32.1 W 7 9 1007.6 - 0.0 - Mostly clear 10 - - - -
24/09:00am 31.3 W 10 14 1007.7 R 0.0 Haze Partly cloudy 20 - - - -
24/08:30am 31.3 W 8 12 1007.7 - 0.0 - Partly cloudy 10 - - - -
24/08:00am 30.8 W 8 11 1007.6 - 0.0 - Partly cloudy 10 - - - -
24/07:30am 30.1 W 9 12 1007.4 - 0.0 - Mostly cloudy 10 - - - -
24/07:00am 29.9 WSW 8 12 1007.3 - 0.0 - Mostly cloudy 10 - - - -
24/06:30am 29.6 W 7 11 1006.9 - 0.0 - Mostly cloudy 10 - - - -
24/06:00am 29.2 W 9 13 1006.0 F 0.0 Haze Partly cloudy 20 - - - -
24/05:30am 29.0 WNW 8 11 1005.9 - 0.0 - Partly cloudy 10 - - - -
24/05:00am 29.0 W 8 12 1005.7 - 0.0 - Partly cloudy 10 - - - -
24/04:30am 28.9 W 8 11 1005.2 - 0.0 - Partly cloudy 10 - - - -
24/04:00am 28.9 WNW 9 13 1004.8 - 0.0 - Partly cloudy 10 - - - -
24/03:30am 29.0 WNW 9 13 1004.8 - 0.0 - Partly cloudy 10 - - - -
24/03:00am 29.1 WNW 9 13 1004.8 - 0.0 - Cloudy 10 - - - -
24/02:30am 29.3 WNW 11 16 1005.0 - 0.0 - Partly cloudy 10 - - - -
24/02:00am 29.1 NW 8 14 1005.1 - 0.0 - Partly cloudy 10 - - - -
24/01:30am 29.3 WNW 9 13 1005.5 - 0.0 - Partly cloudy 10 - - - -
24/01:00am 29.2 WNW 9 15 1005.9 - 0.0 - Partly cloudy 10 - - - -
24/12:30am 29.3 NW 9 13 1005.8 - 0.0 - Partly cloudy 10 - - - -
24/12:00am 29.2 NW 10 14 1006.1 - 0.0 - Cloudy 10 - - - -
 
Date/Time
WST
Temp

°C
Wind Pressure Rain
since 9am
mm
Weather Cloud Vis
km
Sea
Height
m
Swell
Dir
 
Speed
knots
Gust
knots
hPa Trend Height
m
Period
s
Dir
23/11:30pm 29.4 NW 11 16 1006.4 - 0.0 - Partly cloudy 10 - - - -
23/11:00pm 29.3 NW 9 15 1006.6 - 0.0 - Partly cloudy 10 - - - -
23/10:30pm 29.3 NW 8 16 1006.8 - 0.0 - Partly cloudy 10 - - - -
23/10:00pm 29.3 NW 8 13 1006.4 - 0.0 - - 10 - - - -
23/09:30pm 29.3 WNW 9 14 1006.1 - 0.0 - - 10 - - - -
23/09:00pm 29.4 WNW 8 14 1005.7 - 0.0 - Cloudy 10 - - - -
23/08:30pm 29.4 NW 7 12 1005.7 - 0.0 - Partly cloudy 10 - - - -
23/08:00pm 29.5 WNW 7 12 1005.5 - 0.0 - Partly cloudy 10 - - - -
23/07:30pm 29.6 WNW 8 11 1005.2 - 0.0 - Partly cloudy 10 - - - -
23/07:00pm 29.7 WNW 8 12 1004.9 - 0.0 - Partly cloudy 10 - - - -
23/06:30pm 29.9 W 8 11 1004.4 - 0.0 - Partly cloudy 10 - - - -
23/06:00pm 30.3 W 9 13 1004.3 - 0.0 - Cloudy 10 - - - -
23/05:30pm 30.8 W 9 12 1004.1 - 0.0 - Partly cloudy 10 - - - -
23/05:00pm 31.0 W 9 13 1004.1 - 0.0 - Partly cloudy 10 - - - -
23/04:30pm 31.6 W 11 15 1003.4 - 0.0 - Mostly clear 10 - - - -
23/04:00pm 31.4 W 11 14 1003.6 - 0.0 - Partly cloudy 10 - - - -
23/03:30pm 31.8 W 12 17 1003.3 - 0.0 - Partly cloudy 10 - - - -
23/03:00pm 31.7 W 12 15 1003.5 F 0.0 Haze Partly cloudy 20 - - - -
23/02:30pm 32.2 W 13 18 1003.8 - 0.0 - Partly cloudy 10 - - - -
23/02:00pm 32.4 WNW 12 14 1004.2 - 0.0 - Partly cloudy 10 - - - -
23/01:30pm 32.5 WNW 11 15 1004.4 - 0.0 - Mostly clear 10 - - - -
23/01:00pm 32.5 W 12 17 1004.9 - 0.0 - Mostly clear 10 - - - -
23/12:30pm 32.2 W 11 15 1005.2 - 0.0 - Mostly clear 10 - - - -
23/12:00pm 31.6 W 11 16 1005.4 R 0.0 Haze Mostly cloudy 25 - - - -
23/11:30am 31.5 WNW 11 15 1005.9 - 0.0 - Partly cloudy 10 - - - -
23/11:00am 31.9 WNW 10 14 1006.1 - 0.0 - Partly cloudy 10 - - - -
23/10:30am 31.3 WNW 11 17 1005.7 - 0.0 - Partly cloudy 10 - - - -
23/10:00am 31.4 WNW 11 17 1005.8 - 0.0 - Partly cloudy 10 - - - -
23/09:30am 31.9 WNW 11 15 1005.8 - 0.0 - Partly cloudy 10 - - - -
23/09:00am 30.8 WNW 13 18 1005.7 F 0.0 Haze Partly cloudy 25 - - - -
23/08:30am 30.7 WNW 11 16 1005.8 - 0.0 - Partly cloudy 10 - - - -
23/08:00am 30.3 WNW 12 18 1005.7 - 0.0 - Partly cloudy 10 - - - -
23/07:30am 30.2 W 11 16 1005.4 - 0.0 - Partly cloudy 10 - - - -
23/07:00am 29.8 W 11 17 1005.2 - 0.0 - Partly cloudy 10 - - - -
23/06:30am 29.5 WNW 10 14 1005.4 - 0.0 - Partly cloudy 10 - - - -
23/06:00am 29.2 WNW 10 15 1005.4 F 0.0 Haze Mostly cloudy 25 - - - -
23/05:30am 29.1 WNW 10 15 1005.2 - 0.0 - Partly cloudy 10 - - - -
23/05:00am 29.0 WNW 9 14 1005.2 - 0.0 - Partly cloudy 10 - - - -
23/04:30am 28.9 WNW 9 14 1004.9 - 0.0 - Partly cloudy 10 - - - -
23/04:00am 28.8 WNW 9 13 1004.7 - 0.0 - Partly cloudy 10 - - - -
23/03:30am 28.8 WNW 8 11 1004.3 - 0.0 - - 10 - - - -
23/03:00am 28.9 WNW 9 14 1004.5 - 0.0 - Cloudy 10 - - - -
23/02:30am 29.2 W 11 16 1004.9 - 0.0 - Partly cloudy 10 - - - -
23/02:00am 29.4 W 14 19 1005.1 - 0.0 - Partly cloudy 10 - - - -
23/01:30am 29.5 W 14 18 1005.1 - 0.0 - Partly cloudy 10 - - - -
23/01:00am 29.5 W 14 20 1005.4 - 0.0 - Cloudy 10 - - - -
23/12:30am 29.3 W 12 17 1005.4 - 0.0 - Cloudy 10 - - - -
23/12:00am 29.5 W 14 18 1005.2 - 0.0 - Cloudy 10 - - - -
 
Date/Time
WST
Temp

°C
Wind Pressure Rain
since 9am
mm
Weather Cloud Vis
km
Sea
Height
m
Swell
Dir
 
Speed
knots
Gust
knots
hPa Trend Height
m
Period
s
Dir
22/11:30pm 29.3 W 14 22 1005.3 - 0.0 - Partly cloudy 10 - - - -
22/11:00pm 29.2 W 13 21 1005.4 - 0.0 - Partly cloudy 10 - - - -
22/10:30pm 29.3 W 13 19 1005.9 - 0.0 - Partly cloudy 10 - - - -
22/10:00pm 29.2 W 12 18 1005.9 - 0.0 - Partly cloudy 10 - - - -
22/09:30pm 29.2 WNW 10 16 1005.8 - 0.0 - Partly cloudy 10 - - - -
22/09:00pm 29.2 W 12 16 1005.5 - 0.0 - Cloudy 10 - - - -
22/08:30pm 29.2 WNW 11 17 1005.4 - 0.0 - Partly cloudy 10 - - - -
22/08:00pm 29.4 WNW 11 17 1005.5 - 0.0 - Partly cloudy 10 - - - -
22/07:30pm 29.4 WNW 11 16 1005.5 - 0.0 - Cloudy 10 - - - -
22/07:00pm 29.4 WNW 11 15 1005.0 - 0.0 - Partly cloudy 10 - - - -
22/06:30pm 29.6 WNW 11 15 1005.1 - 0.0 - Partly cloudy 10 - - - -
22/06:00pm 29.9 W 11 17 1005.0 - 0.0 - Cloudy 10 - - - -
22/05:30pm 30.7 W 12 18 1005.2 - 0.0 - Cloudy 10 - - - -
22/05:00pm 30.4 W 13 17 1005.0 - 0.0 - Partly cloudy 10 - - - -
22/04:30pm 30.9 W 12 18 1004.9 - 0.0 - Partly cloudy 10 - - - -
22/04:00pm 31.5 W 12 17 1005.1 - 0.0 - Partly cloudy 10 - - - -
22/03:30pm 31.6 W 13 19 1005.2 - 0.0 - Partly cloudy 10 - - - -
22/03:00pm 32.2 W 14 20 1005.4 F 0.0 Haze Partly cloudy 25 - - - -
22/02:30pm 32.3 W 13 19 1005.9 - 0.0 - Partly cloudy 10 - - - -
22/02:00pm 32.7 W 14 18 1006.0 - 0.0 - Partly cloudy 10 - - - -
22/01:30pm 32.1 W 14 19 1006.2 - 0.0 - Mostly clear 10 - - - -
22/01:00pm 32.3 W 14 18 1006.6 - 0.0 - Mostly clear 10 - - - -
22/12:30pm 32.0 W 14 19 1007.2 - 0.0 - Mostly clear 10 - - - -
22/12:00pm 32.1 WSW 16 20 1007.4 F 0.0 Haze Mostly clear 25 - - - -

Other Formats:

Comma delimited format used in spreadsheet applications
http://www.bom.gov.au/fwo/IDW60701/IDW60701.94203.axf

JavaScript Object Notation format (JSON) in row-major order
http://www.bom.gov.au/fwo/IDW60701/IDW60701.94203.json